createdAt,value
2019-05-09T00:01:26.109Z,11.2
2019-05-09T00:11:25.936Z,9.8
2019-05-09T00:21:25.636Z,10.1
2019-05-09T00:31:27.044Z,10.0
2019-05-09T00:41:26.497Z,10.6
2019-05-09T00:51:25.981Z,12.2
2019-05-09T01:01:26.461Z,13.9
2019-05-09T01:11:27.143Z,13.9
2019-05-09T01:21:26.618Z,13.2
2019-05-09T01:31:26.879Z,13.7
2019-05-09T01:41:30.969Z,14.2
2019-05-09T01:51:27.134Z,12.1
2019-05-09T02:01:28.782Z,13.2
2019-05-09T02:11:40.053Z,13.7
2019-05-09T02:21:34.468Z,12.1
2019-05-09T02:31:26.653Z,14.2
2019-05-09T02:41:28.706Z,11.8
2019-05-09T02:51:28.847Z,11.4
2019-05-09T03:01:25.786Z,11.5
2019-05-09T03:11:28.894Z,10.4
2019-05-09T03:21:29.266Z,9.7
2019-05-09T03:31:29.767Z,10.7
2019-05-09T03:41:28.350Z,10.4
2019-05-09T03:51:27.450Z,10.9
2019-05-09T04:01:28.029Z,11.4
2019-05-09T04:11:27.600Z,12.6
2019-05-09T04:21:28.027Z,13.0
2019-05-09T04:31:27.941Z,12.0
2019-05-09T04:41:28.456Z,12.9
2019-05-09T04:51:28.208Z,14.1
2019-05-09T05:01:28.104Z,14.1
2019-05-09T05:11:27.881Z,15.0
2019-05-09T05:21:27.999Z,15.3
2019-05-09T05:31:28.490Z,11.8
2019-05-09T05:41:28.434Z,9.3
2019-05-09T05:51:27.660Z,12.7
2019-05-09T06:01:27.804Z,17.4
2019-05-09T06:11:28.045Z,11.6
2019-05-09T06:21:28.014Z,12.7
2019-05-09T06:31:28.414Z,10.2
2019-05-09T06:41:28.509Z,11.1
2019-05-09T06:51:28.113Z,12.8
2019-05-09T07:01:28.498Z,14.0
2019-05-09T07:11:27.491Z,12.3
2019-05-09T07:21:28.579Z,11.0
2019-05-09T07:31:28.348Z,14.1
2019-05-09T07:41:28.170Z,12.5
2019-05-09T07:51:27.557Z,14.0
2019-05-09T08:01:28.016Z,16.4
2019-05-09T08:11:28.183Z,19.2
2019-05-09T08:21:28.046Z,19.2
2019-05-09T08:31:28.024Z,18.1
2019-05-09T08:41:28.946Z,16.7
2019-05-09T08:51:34.877Z,16.4
2019-05-09T09:01:33.697Z,13.3
2019-05-09T09:11:27.990Z,12.8
2019-05-09T09:21:28.550Z,12.9
2019-05-09T09:31:28.475Z,10.6
2019-05-09T09:41:28.435Z,12.4
2019-05-09T09:51:27.566Z,4.1
2019-05-09T10:01:28.678Z,3.8
2019-05-09T10:11:28.591Z,3.8
2019-05-09T10:21:27.653Z,4.3
2019-05-09T10:31:28.208Z,4.0
2019-05-09T10:41:26.566Z,5.2
2019-05-09T10:51:26.585Z,4.9
2019-05-09T11:01:29.394Z,4.8
2019-05-09T11:11:32.424Z,4.7
2019-05-09T11:21:28.835Z,4.0
2019-05-09T11:31:29.084Z,4.1
2019-05-09T11:41:28.968Z,4.3
2019-05-09T11:51:28.949Z,3.7
2019-05-09T12:01:28.963Z,3.5
2019-05-09T12:11:26.145Z,3.7
2019-05-09T12:21:28.159Z,4.0
2019-05-09T12:31:28.705Z,3.7
2019-05-09T12:41:31.329Z,4.0
2019-05-09T12:51:28.109Z,3.4
2019-05-09T13:01:26.026Z,3.8
2019-05-09T13:11:27.891Z,3.3
2019-05-09T13:21:29.488Z,3.7
2019-05-09T13:31:29.335Z,3.5
2019-05-09T13:41:26.246Z,3.7
2019-05-09T13:51:27.406Z,4.2
2019-05-09T14:01:26.205Z,4.5
2019-05-09T14:11:29.073Z,4.0
2019-05-09T14:21:26.433Z,5.0
2019-05-09T14:31:29.672Z,5.4
2019-05-09T14:41:31.769Z,5.4
2019-05-09T14:51:28.387Z,5.4
2019-05-09T15:01:28.655Z,6.1
2019-05-09T15:11:28.116Z,6.6
2019-05-09T15:21:26.805Z,6.8
2019-05-09T15:31:28.798Z,7.9
2019-05-09T15:41:27.722Z,9.0
2019-05-09T15:51:28.052Z,9.4
2019-05-09T16:01:33.936Z,9.2
2019-05-09T16:11:27.916Z,9.7
2019-05-09T16:21:27.937Z,10.6
2019-05-09T16:31:27.855Z,17.1
2019-05-09T16:41:29.501Z,21.0
2019-05-09T16:51:28.534Z,15.3
2019-05-09T17:01:28.334Z,12.1
2019-05-09T17:11:27.760Z,14.5
2019-05-09T17:21:28.059Z,13.3
2019-05-09T17:31:27.508Z,11.4
2019-05-09T17:41:28.344Z,12.8
2019-05-09T17:51:33.640Z,12.8
2019-05-09T18:01:27.691Z,13.2
2019-05-09T18:11:27.087Z,15.0
2019-05-09T18:21:28.160Z,15.8
2019-05-09T18:31:27.879Z,17.5
2019-05-09T18:41:28.660Z,20.3
2019-05-09T18:51:28.634Z,21.3
2019-05-09T19:01:27.006Z,21.4
2019-05-09T19:11:26.938Z,19.5
2019-05-09T19:21:37.113Z,20.4
2019-05-09T19:31:25.921Z,26.9
2019-05-09T19:41:27.867Z,23.4
2019-05-09T19:51:27.490Z,22.9
2019-05-09T20:01:26.892Z,23.5
2019-05-09T20:11:26.871Z,24.0
2019-05-09T20:21:25.780Z,24.4
2019-05-09T20:31:27.053Z,24.6
2019-05-09T20:41:26.495Z,26.0
2019-05-09T20:51:26.058Z,27.8
2019-05-09T21:01:26.067Z,30.7
2019-05-09T21:11:27.190Z,38.4
2019-05-09T21:21:26.419Z,38.5
2019-05-09T21:31:25.948Z,39.2
2019-05-09T21:41:26.557Z,38.9
2019-05-09T21:51:26.354Z,38.1
2019-05-09T22:01:26.328Z,40.2
2019-05-09T22:11:27.151Z,41.4
2019-05-09T22:21:28.156Z,39.6
2019-05-09T22:31:26.572Z,40.3
2019-05-09T22:41:26.982Z,40.5
2019-05-09T22:51:26.844Z,31.0
2019-05-09T23:01:26.348Z,27.1
2019-05-09T23:11:27.417Z,25.0
2019-05-09T23:21:26.798Z,23.0
2019-05-09T23:31:26.953Z,21.6
2019-05-09T23:41:29.161Z,18.5
2019-05-09T23:51:25.907Z,17.5
